Time;durP1;ratioP1;P1;durP2;ratioP2;P2;SDS_P1;SDS_P2;PMS_P1;PMS_P2;Temp;Humidity;BMP_temperature;BMP_pressure;BME280_temperature;BME280_humidity;BME280_pressure;Samples;Min_cycle;Max_cycle;Signal;HPM_P1;HPM_P2
2022/08/14 00:02:06;;;;;;;0.00;0.00;;;20.70;99.90;;;;;;5082496;28;20056;-75
2022/08/14 00:04:35;;;;;;;0.00;0.00;;;20.70;99.90;;;;;;5079791;28;20501;-76
2022/08/14 00:07:05;;;;;;;0.00;0.00;;;20.70;99.90;;;;;;5074760;28;20114;-75
2022/08/14 00:09:31;;;;;;;0.00;0.00;;;20.70;99.90;;;;;;5081734;28;20029;-77
2022/08/14 00:11:57;;;;;;;0.00;0.00;;;20.50;99.90;;;;;;5080070;28;20035;-77
2022/08/14 00:14:27;;;;;;;0.00;0.00;;;20.30;99.90;;;;;;5084270;28;20033;-77
2022/08/14 00:16:53;;;;;;;0.00;0.00;;;20.30;99.90;;;;;;5084687;28;20048;-77
2022/08/14 00:19:19;;;;;;;0.00;0.00;;;20.20;99.90;;;;;;5083971;28;20032;-75
2022/08/14 00:21:50;;;;;;;0.00;0.00;;;20.10;99.90;;;;;;5077234;28;20032;-75
2022/08/14 00:24:17;;;;;;;0.00;0.00;;;20.20;99.90;;;;;;5084869;28;20028;-76
2022/08/14 00:26:43;;;;;;;0.00;0.00;;;20.30;99.90;;;;;;5084339;28;20024;-77
2022/08/14 00:29:10;;;;;;;0.00;0.00;;;20.50;99.90;;;;;;5083276;28;20028;-77
2022/08/14 00:31:36;;;;;;;0.00;0.00;;;20.70;99.90;;;;;;5087563;28;20478;-77
2022/08/14 00:34:03;;;;;;;0.00;0.00;;;20.80;99.90;;;;;;5083163;28;20071;-77
2022/08/14 00:36:31;;;;;;;0.22;0.22;;;20.90;99.90;;;;;;5091844;28;20119;-77
2022/08/14 00:38:57;;;;;;;0.00;0.00;;;20.80;99.90;;;;;;5089760;28;20452;-77
2022/08/14 00:41:28;;;;;;;0.65;0.65;;;20.90;99.90;;;;;;5090924;28;20032;-74
2022/08/14 00:43:55;;;;;;;0.00;0.00;;;21.10;99.90;;;;;;5086760;28;20517;-77
2022/08/14 00:46:21;;;;;;;0.00;0.00;;;21.20;99.90;;;;;;5085713;28;20036;-77
2022/08/14 00:48:47;;;;;;;0.00;0.00;;;21.20;99.90;;;;;;5083033;28;20033;-75
2022/08/14 00:51:14;;;;;;;0.00;0.00;;;21.30;99.90;;;;;;5084351;28;20036;-77
2022/08/14 00:53:41;;;;;;;0.22;0.13;;;21.50;99.90;;;;;;5084208;28;20036;-77
2022/08/14 00:56:08;;;;;;;0.00;0.00;;;21.80;99.90;;;;;;5091281;28;20036;-77
2022/08/14 00:58:35;;;;;;;0.00;0.00;;;21.80;99.90;;;;;;5092003;28;20516;-75
2022/08/14 01:01:08;;;;;;;0.00;0.00;;;22.00;99.90;;;;;;5093863;28;20123;-75
2022/08/14 01:03:36;;;;;;;0.00;0.00;;;22.40;99.90;;;;;;5091855;28;20039;-75
2022/08/14 01:06:03;;;;;;;0.00;0.00;;;23.00;97.50;;;;;;5077046;28;20400;-76
2022/08/14 01:08:30;;;;;;;0.00;0.00;;;23.30;94.10;;;;;;5089546;28;20028;-76
2022/08/14 01:10:57;;;;;;;0.38;0.38;;;23.60;90.00;;;;;;5086240;28;20036;-75
2022/08/14 01:13:31;;;;;;;17.40;9.45;;;23.50;92.80;;;;;;5091804;28;20123;-76
2022/08/14 01:15:59;;;;;;;0.65;0.65;;;23.70;90.10;;;;;;5096150;28;20420;-76
2022/08/14 01:21:15;;;;;;;0.00;0.00;;;24.00;92.10;;;;;;5090219;28;20120;-76
2022/08/14 01:23:47;;;;;;;0.75;0.65;;;23.70;91.00;;;;;;5095263;28;20024;-76
2022/08/14 01:26:15;;;;;;;1.90;0.98;;;24.30;86.90;;;;;;5090108;28;20115;-76
2022/08/14 01:28:43;;;;;;;0.00;0.00;;;24.60;82.80;;;;;;5095018;28;20101;-75
2022/08/14 01:31:18;;;;;;;0.00;0.00;;;25.00;75.60;;;;;;5092853;28;20046;-75
2022/08/14 01:33:47;;;;;;;0.00;0.00;;;25.40;72.10;;;;;;5093308;28;20036;-76
2022/08/14 01:36:20;;;;;;;0.00;0.00;;;25.80;70.20;;;;;;5088643;28;20139;-76
2022/08/14 01:38:50;;;;;;;0.00;0.00;;;26.10;69.30;;;;;;5088462;28;20031;-76
2022/08/14 01:41:19;;;;;;;0.47;0.47;;;26.80;70.10;;;;;;5089461;28;20028;-76
2022/08/14 01:43:50;;;;;;;0.00;0.00;;;27.60;64.80;;;;;;5094276;28;20032;-76
2022/08/14 01:46:18;;;;;;;0.20;0.20;;;28.00;62.70;;;;;;5094929;28;20055;-76
2022/08/14 01:48:45;;;;;;;0.20;0.20;;;28.70;60.30;;;;;;5090392;28;20113;-76
2022/08/14 01:51:21;;;;;;;0.00;0.00;;;29.30;58.50;;;;;;5095232;28;20371;-76
2022/08/14 01:53:53;;;;;;;0.00;0.00;;;29.30;58.50;;;;;;5094588;28;20036;-76
2022/08/14 01:56:21;;;;;;;0.00;0.00;;;30.00;54.90;;;;;;5087747;28;20031;-76
2022/08/14 01:58:48;;;;;;;0.47;0.47;;;30.60;52.10;;;;;;5104172;28;20020;-76
2022/08/14 02:01:19;;;;;;;0.10;0.10;;;30.50;50.90;;;;;;5095014;28;20427;-76
2022/08/14 02:03:46;;;;;;;0.00;0.00;;;30.50;50.80;;;;;;5095051;28;20028;-76
2022/08/14 02:06:13;;;;;;;0.75;0.32;;;31.00;50.50;;;;;;5094939;28;20105;-76
2022/08/14 02:08:40;;;;;;;0.40;0.40;;;30.70;51.90;;;;;;5085921;28;20032;-76
2022/08/14 02:11:21;;;;;;;0.00;0.00;;;29.60;52.20;;;;;;5115531;28;20027;-76
2022/08/14 02:13:58;;;;;;;0.00;0.00;;;29.60;52.70;;;;;;5106843;28;20093;-76
2022/08/14 02:16:35;;;;;;;0.00;0.00;;;30.40;51.90;;;;;;5075766;28;20398;-76
2022/08/14 02:19:04;;;;;;;0.15;0.15;;;30.90;51.50;;;;;;5094357;28;20036;-76
2022/08/14 02:21:31;;;;;;;1.75;1.38;;;31.30;49.90;;;;;;5088899;28;20416;-77
2022/08/14 02:24:00;;;;;;;0.47;0.47;;;30.90;50.10;;;;;;5092313;28;20040;-76
2022/08/14 02:26:35;;;;;;;0.35;0.35;;;31.20;50.70;;;;;;5094972;28;20040;-76
2022/08/14 02:29:10;;;;;;;0.45;0.20;;;30.70;50.80;;;;;;5094051;28;20505;-76
2022/08/14 02:31:42;;;;;;;0.00;0.00;;;30.90;51.30;;;;;;5093850;28;20032;-76
2022/08/14 02:34:16;;;;;;;0.10;0.10;;;30.50;53.00;;;;;;5086368;28;20028;-76
2022/08/14 02:36:42;;;;;;;2.78;2.55;;;30.20;53.50;;;;;;5085506;28;20037;-76
2022/08/14 02:39:09;;;;;;;0.45;0.45;;;29.20;56.20;;;;;;5077241;28;20056;-76
2022/08/14 02:41:37;;;;;;;1.80;1.33;;;30.20;54.60;;;;;;5082234;28;20081;-76
2022/08/14 02:44:05;;;;;;;4.82;0.28;;;30.30;53.00;;;;;;5083330;28;20508;-76
2022/08/14 02:46:32;;;;;;;0.00;0.00;;;30.40;53.10;;;;;;5090219;28;20063;-76
2022/08/14 02:48:59;;;;;;;0.22;0.22;;;30.80;51.80;;;;;;5080601;28;20123;-76
2022/08/14 02:51:28;;;;;;;3.05;2.83;;;31.60;51.00;;;;;;5085264;28;20083;-76
2022/08/14 02:53:57;;;;;;;2.75;2.35;;;31.70;49.30;;;;;;5073523;28;20086;-76
2022/08/14 02:56:24;;;;;;;0.20;0.20;;;31.30;49.60;;;;;;5089111;28;20047;-75
2022/08/14 02:58:51;;;;;;;0.00;0.00;;;31.10;49.20;;;;;;5087188;28;20363;-76
2022/08/14 03:01:19;;;;;;;0.10;0.10;;;31.40;49.60;;;;;;5073625;28;20028;-75
2022/08/14 03:03:49;;;;;;;0.40;0.20;;;31.60;49.30;;;;;;5072972;28;20064;-76
2022/08/14 03:06:22;;;;;;;0.05;0.05;;;31.60;48.80;;;;;;5063691;28;20521;-77
2022/08/14 03:08:49;;;;;;;2.25;1.65;;;31.20;49.30;;;;;;5066997;28;20032;-76
2022/08/14 03:11:15;;;;;;;0.70;0.70;;;31.60;49.60;;;;;;5067245;28;20028;-76
2022/08/14 03:13:43;;;;;;;0.00;0.00;;;31.80;49.40;;;;;;5066105;28;20033;-76
2022/08/14 03:16:14;;;;;;;0.15;0.15;;;31.90;47.90;;;;;;5064957;28;20028;-76
2022/08/14 03:18:44;;;;;;;2.72;1.25;;;32.20;46.00;;;;;;5062072;28;20049;-76
2022/08/14 03:21:14;;;;;;;0.00;0.00;;;32.90;45.50;;;;;;5065708;28;20040;-76
2022/08/14 03:23:41;;;;;;;0.00;0.00;;;32.10;46.30;;;;;;5066930;28;20032;-76
2022/08/14 03:26:10;;;;;;;0.00;0.00;;;31.80;45.80;;;;;;5067588;28;20054;-76
2022/08/14 03:28:40;;;;;;;0.00;0.00;;;31.60;45.50;;;;;;5065737;28;20063;-76
2022/08/14 03:31:07;;;;;;;0.57;0.57;;;30.80;46.60;;;;;;5061752;28;20040;-77
2022/08/14 03:33:36;;;;;;;0.10;0.10;;;30.90;46.80;;;;;;5063932;28;20575;-77
2022/08/14 03:36:07;;;;;;;1.55;1.10;;;30.10;49.50;;;;;;5069767;28;20048;-76
2022/08/14 03:38:33;;;;;;;0.52;0.52;;;28.50;52.80;;;;;;5089866;28;20089;-76
2022/08/14 03:41:02;;;;;;;0.00;0.00;;;27.80;54.50;;;;;;5108528;28;20240;-76
2022/08/14 03:43:28;;;;;;;0.00;0.00;;;27.90;54.80;;;;;;5073460;28;20036;-76
2022/08/14 03:45:54;;;;;;;0.00;0.00;;;28.10;54.20;;;;;;5082416;28;20028;-76
2022/08/14 03:48:20;;;;;;;0.00;0.00;;;28.20;53.10;;;;;;5073090;28;20040;-76
2022/08/14 03:50:52;;;;;;;0.13;0.10;;;28.50;51.90;;;;;;5078413;28;20114;-76
2022/08/14 03:53:19;;;;;;;0.43;0.25;;;28.00;53.90;;;;;;5078812;28;20032;-75
2022/08/14 03:55:47;;;;;;;0.15;0.15;;;28.00;53.90;;;;;;5091626;28;20041;-76
2022/08/14 03:58:14;;;;;;;3.47;1.85;;;28.20;53.50;;;;;;5080543;28;20491;-76
2022/08/14 04:00:41;;;;;;;2.78;2.67;;;28.20;54.60;;;;;;5091055;28;20385;-76
2022/08/14 04:03:10;;;;;;;0.00;0.00;;;28.30;52.90;;;;;;5113419;28;20508;-76
2022/08/14 04:05:37;;;;;;;0.15;0.15;;;28.60;52.60;;;;;;5113340;28;20498;-76
2022/08/14 04:08:07;;;;;;;0.95;0.73;;;28.50;53.70;;;;;;5113295;28;20028;-76
2022/08/14 04:10:33;;;;;;;0.00;0.00;;;28.10;54.80;;;;;;5106673;28;20089;-76
2022/08/14 04:13:01;;;;;;;0.00;0.00;;;28.00;56.20;;;;;;5083396;28;20524;-76
2022/08/14 04:15:27;;;;;;;3.25;3.03;;;28.30;55.70;;;;;;5091728;28;20029;-76
2022/08/14 04:17:54;;;;;;;2.83;2.63;;;28.30;55.20;;;;;;5085282;28;20047;-76
2022/08/14 04:20:21;;;;;;;3.60;0.90;;;28.10;56.30;;;;;;5085684;28;20466;-77
2022/08/14 04:22:49;;;;;;;0.00;0.00;;;28.20;56.80;;;;;;5084886;28;20036;-77
2022/08/14 04:25:16;;;;;;;0.00;0.00;;;28.30;57.10;;;;;;5074764;28;20036;-77
2022/08/14 04:27:42;;;;;;;2.95;2.65;;;28.40;58.10;;;;;;5082227;28;20074;-77
2022/08/14 04:30:09;;;;;;;0.00;0.00;;;28.10;56.90;;;;;;5081081;28;20124;-77
2022/08/14 04:32:35;;;;;;;0.00;0.00;;;28.20;58.00;;;;;;5086495;28;20143;-75
2022/08/14 04:35:01;;;;;;;5.95;5.72;;;28.20;57.50;;;;;;5092929;28;20032;-77
2022/08/14 04:45:43;;;;;;;0.00;0.00;;;28.70;55.80;;;;;;5092985;28;20073;-77
2022/08/14 04:48:14;;;;;;;0.32;0.30;;;28.40;55.90;;;;;;5093729;28;20036;-77
2022/08/14 04:50:48;;;;;;;6.68;2.10;;;28.30;56.40;;;;;;5092592;28;20085;-77
2022/08/14 04:53:22;;;;;;;3.92;1.20;;;28.30;56.90;;;;;;5090468;28;20038;-76
2022/08/14 04:55:49;;;;;;;0.00;0.00;;;28.40;57.10;;;;;;5093554;28;20028;-76
2022/08/14 04:58:23;;;;;;;0.00;0.00;;;28.60;57.10;;;;;;5087292;28;20070;-77
2022/08/14 05:00:50;;;;;;;0.15;0.15;;;28.70;56.90;;;;;;5095621;28;20052;-77
2022/08/14 05:03:21;;;;;;;1.08;0.73;;;28.40;56.50;;;;;;5088408;28;20032;-77
2022/08/14 05:05:49;;;;;;;0.10;0.10;;;28.60;56.90;;;;;;5080882;28;20036;-75
2022/08/14 05:08:15;;;;;;;0.45;0.22;;;28.70;56.20;;;;;;5103578;28;20199;-75
2022/08/14 05:10:50;;;;;;;5.38;1.88;;;28.80;55.90;;;;;;5087412;28;20032;-78
2022/08/14 05:13:22;;;;;;;2.75;1.08;;;28.70;57.00;;;;;;5079305;28;20075;-76
2022/08/14 05:15:51;;;;;;;1.05;0.93;;;28.70;57.10;;;;;;5086815;28;20028;-78
2022/08/14 05:18:30;;;;;;;1.02;0.88;;;28.80;57.60;;;;;;5083925;28;20035;-75
2022/08/14 05:20:59;;;;;;;0.00;0.00;;;28.90;57.20;;;;;;5086419;28;20042;-77
2022/08/14 05:23:27;;;;;;;1.50;1.08;;;28.80;55.90;;;;;;5088679;28;20028;-77
2022/08/14 05:26:02;;;;;;;0.20;0.17;;;28.90;57.10;;;;;;5082186;28;20036;-76
2022/08/14 05:28:34;;;;;;;0.47;0.47;;;28.70;58.80;;;;;;5086963;28;20032;-77
2022/08/14 05:31:05;;;;;;;0.30;0.30;;;28.90;58.50;;;;;;5087276;28;20483;-77
2022/08/14 05:33:33;;;;;;;1.48;1.17;;;29.00;58.90;;;;;;5089512;28;20043;-76
2022/08/14 05:36:01;;;;;;;6.18;5.38;;;29.00;58.50;;;;;;5095341;28;20048;-77
2022/08/14 05:38:32;;;;;;;0.00;0.00;;;29.10;58.20;;;;;;5083065;28;20103;-77
2022/08/14 05:41:03;;;;;;;0.00;0.00;;;29.40;57.10;;;;;;5091447;28;20413;-77
2022/08/14 05:43:30;;;;;;;0.17;0.17;;;29.40;56.50;;;;;;5083156;28;20517;-77
2022/08/14 05:45:57;;;;;;;3.20;2.33;;;29.30;56.70;;;;;;5083020;28;20053;-76
2022/08/14 05:48:24;;;;;;;0.45;0.45;;;29.20;56.10;;;;;;5074285;28;20091;-76
2022/08/14 05:50:53;;;;;;;5.40;0.88;;;29.20;56.00;;;;;;5087549;28;20043;-76
2022/08/14 05:53:21;;;;;;;0.00;0.00;;;29.20;55.50;;;;;;5092082;28;20482;-76
2022/08/14 05:55:48;;;;;;;0.47;0.47;;;29.10;56.40;;;;;;5092650;28;20390;-76
2022/08/14 05:58:14;;;;;;;0.10;0.10;;;29.10;56.80;;;;;;5089324;28;20036;-76
2022/08/14 06:00:42;;;;;;;2.40;2.28;;;29.30;55.70;;;;;;5083346;28;20468;-76
2022/08/14 06:03:11;;;;;;;0.00;0.00;;;29.50;55.20;;;;;;5082709;28;20226;-76
2022/08/14 06:05:37;;;;;;;0.28;0.28;;;29.70;54.80;;;;;;5086648;28;20044;-76
2022/08/14 06:08:04;;;;;;;2.22;2.05;;;29.80;54.40;;;;;;5089689;28;20044;-76
2022/08/14 06:10:30;;;;;;;0.10;0.10;;;29.90;55.00;;;;;;5075309;28;20116;-76
2022/08/14 06:13:00;;;;;;;3.60;2.35;;;29.90;55.40;;;;;;5071305;28;20044;-76
2022/08/14 06:15:26;;;;;;;0.10;0.10;;;29.80;54.60;;;;;;5075786;28;20036;-76
2022/08/14 06:17:56;;;;;;;0.40;0.40;;;29.60;54.00;;;;;;5083052;28;20054;-76
2022/08/14 06:20:23;;;;;;;0.93;0.85;;;29.20;53.30;;;;;;5088238;28;20028;-77
2022/08/14 06:22:50;;;;;;;0.00;0.00;;;29.20;53.70;;;;;;5086914;28;20044;-76
2022/08/14 06:25:16;;;;;;;0.00;0.00;;;29.50;53.70;;;;;;5075008;28;20035;-75
2022/08/14 06:27:47;;;;;;;0.00;0.00;;;29.40;54.30;;;;;;5081019;28;20044;-75
2022/08/14 06:30:19;;;;;;;1.20;0.38;;;29.60;54.40;;;;;;5091211;28;20119;-76
2022/08/14 06:32:46;;;;;;;0.30;0.30;;;29.70;53.80;;;;;;5088455;28;20032;-76
2022/08/14 06:35:14;;;;;;;0.03;0.03;;;29.70;53.10;;;;;;5092525;28;20112;-77
2022/08/14 06:37:48;;;;;;;1.00;0.73;;;29.50;54.40;;;;;;5091147;28;20036;-77
2022/08/14 06:40:17;;;;;;;8.90;2.70;;;29.40;53.20;;;;;;5089079;28;20101;-77
2022/08/14 06:42:45;;;;;;;0.00;0.00;;;29.40;52.40;;;;;;5092988;28;20121;-77
2022/08/14 06:45:11;;;;;;;0.00;0.00;;;29.40;53.90;;;;;;5092071;28;20489;-77
2022/08/14 06:47:39;;;;;;;0.00;0.00;;;29.60;53.40;;;;;;5088158;28;20036;-77
2022/08/14 06:50:11;;;;;;;10.65;3.72;;;29.90;53.80;;;;;;5085402;28;20036;-77
2022/08/14 06:52:38;;;;;;;1.88;0.85;;;30.00;53.00;;;;;;5092065;28;20040;-76
2022/08/14 06:55:06;;;;;;;0.10;0.10;;;29.80;52.60;;;;;;5093278;28;20094;-75
2022/08/14 06:57:37;;;;;;;2.42;1.88;;;29.90;52.30;;;;;;5089171;28;20493;-75
2022/08/14 07:00:06;;;;;;;0.00;0.00;;;30.00;52.40;;;;;;5086209;28;20541;-76
2022/08/14 07:08:03;;;;;;;0.00;0.00;;;30.00;50.00;;;;;;5094074;28;20059;-77
2022/08/14 07:10:29;;;;;;;0.13;0.13;;;30.10;49.20;;;;;;5090116;28;20165;-76
2022/08/14 07:12:55;;;;;;;0.50;0.50;;;30.20;49.60;;;;;;5087460;28;20043;-76
2022/08/14 07:15:21;;;;;;;0.20;0.20;;;30.20;49.80;;;;;;5089522;28;20032;-77
2022/08/14 07:17:49;;;;;;;3.92;2.20;;;30.30;50.30;;;;;;5084699;28;20115;-77
2022/08/14 07:20:19;;;;;;;0.17;0.17;;;30.60;50.20;;;;;;5082253;28;20381;-77
2022/08/14 07:22:49;;;;;;;0.00;0.00;;;30.70;48.30;;;;;;5092051;28;20024;-76
2022/08/14 07:25:15;;;;;;;0.43;0.43;;;30.40;48.60;;;;;;5089740;28;20036;-76
2022/08/14 07:27:42;;;;;;;0.00;0.00;;;30.60;48.30;;;;;;5082577;28;20031;-76
2022/08/14 07:30:09;;;;;;;13.25;5.28;;;30.60;48.20;;;;;;5079645;28;20028;-77
2022/08/14 07:32:35;;;;;;;0.00;0.00;;;30.80;48.20;;;;;;5073882;28;20462;-77
2022/08/14 07:35:04;;;;;;;0.00;0.00;;;31.00;47.10;;;;;;5087357;28;20036;-77
2022/08/14 07:37:30;;;;;;;2.40;2.30;;;31.00;47.80;;;;;;5089052;28;20039;-76
2022/08/14 07:40:01;;;;;;;0.00;0.00;;;30.70;47.70;;;;;;5085932;28;20431;-78
2022/08/14 07:42:28;;;;;;;0.63;0.22;;;30.60;48.90;;;;;;5087628;28;20078;-76
2022/08/14 07:44:54;;;;;;;0.17;0.17;;;30.90;47.80;;;;;;5081176;28;20040;-75
2022/08/14 07:47:20;;;;;;;0.00;0.00;;;31.10;47.00;;;;;;5076749;28;20035;-75
2022/08/14 07:50:00;;;;;;;0.17;0.13;;;31.50;46.10;;;;;;5081356;28;20063;-75
2022/08/14 07:52:27;;;;;;;0.00;0.00;;;31.90;45.70;;;;;;5083082;28;20028;-75
2022/08/14 07:54:54;;;;;;;0.13;0.13;;;31.80;46.90;;;;;;5080180;28;20604;-75
2022/08/14 07:57:20;;;;;;;0.20;0.20;;;31.80;46.50;;;;;;5083484;28;20150;-77
2022/08/14 07:59:47;;;;;;;0.30;0.30;;;31.90;45.30;;;;;;5082496;28;20535;-76
2022/08/14 08:02:15;;;;;;;0.00;0.00;;;31.80;45.30;;;;;;5082183;28;20032;-76
2022/08/14 08:04:45;;;;;;;0.63;0.63;;;31.60;45.70;;;;;;5088633;28;20487;-76
2022/08/14 08:07:12;;;;;;;0.20;0.20;;;31.50;46.20;;;;;;5086574;28;20542;-76
2022/08/14 08:09:44;;;;;;;0.30;0.30;;;31.70;46.20;;;;;;5095576;28;20071;-75
2022/08/14 08:12:11;;;;;;;0.13;0.13;;;31.80;45.40;;;;;;5093821;28;20056;-76
2022/08/14 08:14:40;;;;;;;0.00;0.00;;;31.90;44.50;;;;;;5093043;28;20032;-76
2022/08/14 08:17:07;;;;;;;0.00;0.00;;;32.00;45.10;;;;;;5090578;28;20072;-76
2022/08/14 08:19:34;;;;;;;0.00;0.00;;;31.90;45.30;;;;;;5091421;28;20036;-76
2022/08/14 08:22:02;;;;;;;0.50;0.50;;;32.10;45.20;;;;;;5088067;28;20369;-76
2022/08/14 08:24:28;;;;;;;0.52;0.52;;;31.80;45.60;;;;;;5072507;28;20043;-76
2022/08/14 08:26:54;;;;;;;0.08;0.08;;;31.70;45.30;;;;;;5093804;28;20490;-77
2022/08/14 08:29:24;;;;;;;0.00;0.00;;;32.00;44.80;;;;;;5084368;28;20394;-77
2022/08/14 08:31:51;;;;;;;0.65;0.40;;;32.10;44.50;;;;;;5086807;28;20037;-77
2022/08/14 08:34:18;;;;;;;3.92;0.98;;;32.30;44.20;;;;;;5090787;28;20127;-76
2022/08/14 08:36:44;;;;;;;0.03;0.03;;;32.40;44.20;;;;;;5096510;28;20079;-76
2022/08/14 08:39:11;;;;;;;0.10;0.10;;;32.50;43.30;;;;;;5095925;28;20538;-76
2022/08/14 08:41:42;;;;;;;0.00;0.00;;;32.40;42.20;;;;;;5086960;28;20040;-77
2022/08/14 08:44:09;;;;;;;0.00;0.00;;;32.60;42.00;;;;;;5095930;28;20036;-77
2022/08/14 08:46:35;;;;;;;0.03;0.03;;;32.70;42.00;;;;;;5096166;28;20066;-77
2022/08/14 08:49:01;;;;;;;0.00;0.00;;;32.80;41.60;;;;;;5085446;28;20085;-77
2022/08/14 08:51:34;;;;;;;0.00;0.00;;;32.90;41.40;;;;;;5089325;28;20456;-77
2022/08/14 08:54:09;;;;;;;0.03;0.03;;;32.80;40.90;;;;;;5088687;28;20490;-77
2022/08/14 08:56:46;;;;;;;0.00;0.00;;;32.90;40.70;;;;;;5086337;28;20039;-77
2022/08/14 08:59:31;;;;;;;0.00;0.00;;;33.00;39.70;;;;;;5086201;28;20070;-77
2022/08/14 09:02:07;;;;;;;0.08;0.08;;;33.10;40.00;;;;;;5089628;28;20036;-77
2022/08/14 09:04:40;;;;;;;1.73;1.35;;;33.10;40.60;;;;;;5078418;28;20028;-77
2022/08/14 09:07:07;;;;;;;0.00;0.00;;;33.20;38.90;;;;;;5091843;28;20127;-77
2022/08/14 09:09:49;;;;;;;0.00;0.00;;;33.30;39.60;;;;;;5090905;28;20024;-77
2022/08/14 09:12:17;;;;;;;1.05;0.68;;;33.30;38.90;;;;;;5093278;28;20119;-77
2022/08/14 09:14:45;;;;;;;0.00;0.00;;;33.20;39.60;;;;;;5088609;28;20040;-77
2022/08/14 09:17:12;;;;;;;0.00;0.00;;;33.20;39.80;;;;;;5090529;28;20032;-76
2022/08/14 09:19:38;;;;;;;0.00;0.00;;;33.30;39.00;;;;;;5072497;28;20028;-76
2022/08/14 09:22:05;;;;;;;0.52;0.32;;;33.30;38.50;;;;;;5085975;28;20063;-76
2022/08/14 09:24:32;;;;;;;0.65;0.65;;;33.40;38.70;;;;;;5094362;28;20029;-76
2022/08/14 09:26:59;;;;;;;0.20;0.20;;;33.40;38.90;;;;;;5088332;28;20047;-77
2022/08/14 09:29:25;;;;;;;0.45;0.45;;;33.60;38.30;;;;;;5085836;28;20131;-76
2022/08/14 09:31:54;;;;;;;0.90;0.90;;;33.50;37.50;;;;;;5089994;28;20421;-76
2022/08/14 09:34:42;;;;;;;0.00;0.00;;;33.30;37.50;;;;;;5088702;28;20119;-77
2022/08/14 09:37:35;;;;;;;0.00;0.00;;;33.20;37.80;;;;;;5087331;28;20037;-76
2022/08/14 09:40:11;;;;;;;0.10;0.10;;;33.20;38.10;;;;;;5091052;28;20024;-76
2022/08/14 09:42:50;;;;;;;0.20;0.10;;;33.20;38.30;;;;;;5087235;28;20043;-79
2022/08/14 09:45:22;;;;;;;0.00;0.00;;;33.20;38.70;;;;;;5086750;28;20032;-77
2022/08/14 09:47:54;;;;;;;0.20;0.20;;;33.10;38.80;;;;;;5088254;28;20021;-75
2022/08/14 09:50:31;;;;;;;0.00;0.00;;;33.20;37.80;;;;;;5088154;28;20055;-77
2022/08/14 09:52:57;;;;;;;0.00;0.00;;;33.00;37.90;;;;;;5090280;28;20648;-77
2022/08/14 09:55:26;;;;;;;0.00;0.00;;;33.00;37.60;;;;;;5085757;28;20059;-75
2022/08/14 09:58:05;;;;;;;0.00;0.00;;;33.20;37.70;;;;;;5090949;28;20032;-77
2022/08/14 10:00:43;;;;;;;1.55;1.08;;;33.30;38.00;;;;;;5084485;28;20498;-77
2022/08/14 10:03:09;;;;;;;0.00;0.00;;;33.30;37.90;;;;;;5086112;28;20360;-77
2022/08/14 10:05:36;;;;;;;2.17;1.52;;;33.20;38.50;;;;;;5089710;28;20062;-76
2022/08/14 10:08:03;;;;;;;0.00;0.00;;;33.20;38.30;;;;;;5086802;28;20063;-75
2022/08/14 10:10:39;;;;;;;0.00;0.00;;;33.20;38.70;;;;;;5080541;28;20512;-76
2022/08/14 10:13:26;;;;;;;0.00;0.00;;;33.10;39.20;;;;;;5079373;28;20067;-75
2022/08/14 10:15:59;;;;;;;2.00;1.33;;;33.20;39.00;;;;;;5086133;28;20020;-76
2022/08/14 10:18:27;;;;;;;0.17;0.17;;;33.20;38.80;;;;;;5088048;28;20032;-77
2022/08/14 10:20:56;;;;;;;0.00;0.00;;;33.10;39.40;;;;;;5079249;28;20039;-76
2022/08/14 10:23:25;;;;;;;0.40;0.40;;;33.20;39.40;;;;;;5079728;28;20459;-76
2022/08/14 10:26:04;;;;;;;0.00;0.00;;;33.20;39.30;;;;;;5090288;28;20036;-76
2022/08/14 10:28:41;;;;;;;0.00;0.00;;;33.20;38.40;;;;;;5086288;28;20474;-77
2022/08/14 10:31:26;;;;;;;0.00;0.00;;;33.20;38.50;;;;;;5083579;28;20044;-77
2022/08/14 10:34:02;;;;;;;0.00;0.00;;;33.10;38.50;;;;;;5091274;28;20371;-73
2022/08/14 10:36:37;;;;;;;0.00;0.00;;;33.00;38.50;;;;;;5081806;28;20068;-73
2022/08/14 10:39:06;;;;;;;0.00;0.00;;;33.10;39.00;;;;;;5069096;28;20381;-75
2022/08/14 10:41:38;;;;;;;0.00;0.00;;;33.00;39.00;;;;;;5084102;28;20405;-73
2022/08/14 10:44:15;;;;;;;0.30;0.30;;;32.80;39.00;;;;;;5091122;28;20040;-74
2022/08/14 10:46:51;;;;;;;0.00;0.00;;;32.70;39.20;;;;;;5084135;28;20081;-75
2022/08/14 10:49:22;;;;;;;0.00;0.00;;;32.60;39.40;;;;;;5075297;28;20044;-74
2022/08/14 10:52:06;;;;;;;0.00;0.00;;;32.70;39.30;;;;;;5077281;28;20481;-74
2022/08/14 10:54:44;;;;;;;0.00;0.00;;;32.80;39.30;;;;;;5080742;28;20040;-74
2022/08/14 10:57:23;;;;;;;0.00;0.00;;;32.90;38.60;;;;;;5084283;28;20470;-74
2022/08/14 10:59:56;;;;;;;0.00;0.00;;;32.70;39.40;;;;;;5091757;28;20043;-73
2022/08/14 11:02:27;;;;;;;0.00;0.00;;;32.80;38.60;;;;;;5092905;28;20039;-73
2022/08/14 11:05:16;;;;;;;0.00;0.00;;;32.70;38.20;;;;;;5073845;28;20071;-74
2022/08/14 11:07:54;;;;;;;0.00;0.00;;;32.70;38.10;;;;;;5086735;28;20036;-74
2022/08/14 11:10:26;;;;;;;0.00;0.00;;;32.70;39.00;;;;;;5090556;28;20040;-72
2022/08/14 11:12:55;;;;;;;0.00;0.00;;;32.80;38.60;;;;;;5085459;28;20469;-74
2022/08/14 11:15:26;;;;;;;0.63;0.63;;;32.80;38.30;;;;;;5075369;28;20031;-75
2022/08/14 11:17:53;;;;;;;0.00;0.00;;;32.80;38.70;;;;;;5086909;28;20055;-74
2022/08/14 11:20:22;;;;;;;0.00;0.00;;;32.70;38.90;;;;;;5087262;28;20489;-74
2022/08/14 11:22:53;;;;;;;0.45;0.45;;;32.60;38.80;;;;;;5082680;28;20023;-74
2022/08/14 11:25:22;;;;;;;0.10;0.10;;;32.70;39.00;;;;;;5088956;28;20443;-74
2022/08/14 11:27:53;;;;;;;0.10;0.10;;;32.60;38.40;;;;;;5088417;28;20032;-74
2022/08/14 11:30:21;;;;;;;0.00;0.00;;;32.50;38.70;;;;;;5084608;28;20147;-73
2022/08/14 11:32:49;;;;;;;0.00;0.00;;;32.60;38.90;;;;;;5086085;28;20032;-75
2022/08/14 11:35:19;;;;;;;0.00;0.00;;;32.60;38.70;;;;;;5084942;28;20024;-75
2022/08/14 11:37:58;;;;;;;0.10;0.10;;;32.60;38.80;;;;;;5082815;28;20047;-74
2022/08/14 11:40:28;;;;;;;4.55;4.10;;;32.50;39.90;;;;;;5083509;28;20028;-74
2022/08/14 11:42:55;;;;;;;0.47;0.47;;;32.40;38.80;;;;;;5087554;28;20043;-73
2022/08/14 11:45:27;;;;;;;0.00;0.00;;;32.50;38.60;;;;;;5084196;28;20032;-76
2022/08/14 11:47:55;;;;;;;0.00;0.00;;;32.40;38.80;;;;;;5086672;28;20478;-73
2022/08/14 11:50:31;;;;;;;0.00;0.00;;;32.60;38.60;;;;;;5088669;28;20044;-74
2022/08/14 11:53:00;;;;;;;0.00;0.00;;;32.60;38.60;;;;;;5076025;28;20028;-73
2022/08/14 11:55:33;;;;;;;1.08;0.98;;;32.50;39.30;;;;;;5082319;28;20485;-74
2022/08/14 11:58:04;;;;;;;0.00;0.00;;;32.60;39.40;;;;;;5082262;28;20032;-73
2022/08/14 12:00:32;;;;;;;0.00;0.00;;;32.50;38.70;;;;;;5088255;28;20478;-74
2022/08/14 12:03:00;;;;;;;0.00;0.00;;;32.50;38.60;;;;;;5084931;28;20043;-74
2022/08/14 12:05:40;;;;;;;0.00;0.00;;;32.60;38.60;;;;;;5086308;28;20074;-74
2022/08/14 12:08:11;;;;;;;0.70;0.52;;;32.60;38.40;;;;;;5087755;28;20127;-73
2022/08/14 12:10:41;;;;;;;0.00;0.00;;;32.60;38.10;;;;;;5091364;28;20119;-73
2022/08/14 12:13:15;;;;;;;0.00;0.00;;;32.50;37.70;;;;;;5086973;28;20039;-72
2022/08/14 12:15:43;;;;;;;0.00;0.00;;;32.40;39.20;;;;;;5089172;28;20024;-73
2022/08/14 12:18:10;;;;;;;0.00;0.00;;;32.30;39.00;;;;;;5087407;28;20361;-74
2022/08/14 12:20:41;;;;;;;0.00;0.00;;;32.30;38.10;;;;;;5084504;28;20033;-74
2022/08/14 12:23:23;;;;;;;0.00;0.00;;;32.30;38.40;;;;;;5086475;28;20036;-73
2022/08/14 12:25:49;;;;;;;0.00;0.00;;;32.20;39.20;;;;;;5085352;28;20055;-73
2022/08/14 12:28:15;;;;;;;0.00;0.00;;;32.20;38.80;;;;;;5085649;28;20077;-73
2022/08/14 12:30:44;;;;;;;1.20;1.13;;;32.30;38.90;;;;;;5081806;28;20111;-74
2022/08/14 12:33:31;;;;;;;1.45;1.40;;;32.30;38.70;;;;;;5087882;28;20449;-74
2022/08/14 12:36:00;;;;;;;0.00;0.00;;;32.30;38.80;;;;;;5086608;28;20090;-74
2022/08/14 12:38:44;;;;;;;0.00;0.00;;;32.20;38.70;;;;;;5083317;28;20032;-74
2022/08/14 12:41:16;;;;;;;0.00;0.00;;;32.20;38.50;;;;;;5078750;28;20036;-74
2022/08/14 12:44:06;;;;;;;0.00;0.00;;;32.10;38.70;;;;;;5087474;28;20036;-74
2022/08/14 12:46:34;;;;;;;0.00;0.00;;;32.10;38.80;;;;;;5090077;28;20082;-74
2022/08/14 12:49:12;;;;;;;0.20;0.20;;;32.10;39.00;;;;;;5086631;28;20059;-74
2022/08/14 12:51:39;;;;;;;0.00;0.00;;;32.10;39.40;;;;;;5061636;28;20432;-74
2022/08/14 12:54:14;;;;;;;2.38;2.28;;;32.10;39.10;;;;;;5087211;28;20427;-74
2022/08/14 12:56:41;;;;;;;0.00;0.00;;;32.00;39.30;;;;;;5088895;28;20029;-73
2022/08/14 12:59:07;;;;;;;3.30;2.05;;;32.00;39.40;;;;;;5085807;28;20029;-73
2022/08/14 13:01:35;;;;;;;0.00;0.00;;;32.00;39.30;;;;;;5078890;28;20462;-74
2022/08/14 13:04:09;;;;;;;0.00;0.00;;;32.00;39.00;;;;;;5088072;28;20051;-74
2022/08/14 13:06:36;;;;;;;0.00;0.00;;;31.80;39.50;;;;;;5094153;28;20051;-75
2022/08/14 13:09:11;;;;;;;0.00;0.00;;;31.60;40.50;;;;;;5087071;28;20047;-74
2022/08/14 13:11:43;;;;;;;1.85;1.20;;;31.50;39.90;;;;;;5093413;28;20036;-73
2022/08/14 13:14:15;;;;;;;0.00;0.00;;;31.60;39.70;;;;;;5083550;28;20024;-73
2022/08/14 13:16:42;;;;;;;0.00;0.00;;;31.60;39.60;;;;;;5085659;28;20032;-73